Houston Intercontinental, TX

6:08 PM CDT on March 23, 2017 (GMT -0500)
George Bush Intercontinental-Houston Airport | | Change Station

Elev 95 ft 29.98 °N, 95.34 °W | Updated 15 minutes ago

Clear
Clear
80 °F
Feels Like 80 °F
N
17
Wind Variable Wind from SSE
Gusts 28 mph

Today
High -- | Low -- °F
--% Chance of Precip.
Yesterday
High -- | Low -- °F
Precip. -- in
Pressure 30.05 in
Visibility 10.0 miles
Clouds Few 7000 ft
Few 25000 ft
Dew Point 51 °F
Humidity 36%
Rainfall 0.00 in
Snow Depth Not available.
7:21 AM 7:34 PM
Waning Crescent, 20% visible
METAR KIAH 232253Z 16015G24KT 10SM FEW070 FEW250 27/11 A3005 RMK AO2 PK WND 15026/2240 SLP175 T02670106
Pressure 30.05 in
Visibility 10.0 miles
Clouds Few 7000 ft
Few 25000 ft
Dew Point 51 °F
Humidity 36%
Rainfall 0.00 in
Snow Depth Not available.
7:21 AM 7:34 PM
Waning Crescent, 20% visible
METAR KIAH 232253Z 16015G24KT 10SM FEW070 FEW250 27/11 A3005 RMK AO2 PK WND 15026/2240 SLP175 T02670106

Get Severe Weather Alerts

Thanks for signing up!

Be on the lookout for a verification email in your inbox.

You'll start receiving the daily forecast at 8 AM.

×

10-Day Weather Forecast

Almanac

Astronomy

Mar. 23, 2017 Rise Set
Actual Time
Civil Twilight
Nautical Twilight
Astronomical Twilight
Moon
Length of Visible Light
Length of Day
Tomorrow will be .
, % of the Moon is Illuminated

Today's Extremes

State Highs State Lows

Community

WunderPhotos

Upload Photos

1,962,540 photos uploaded!

WunderBlog® & News

Nearby

Air Quality

  Air Quality AQ Index Pollutant
Not available.

Snow Depth

Station Depth Elevation

Earthquake Activity

City Distance Mag. Time & Date
Minimum magnitude displayed is 2.5.

Earthquake Activity

City Distance Mag. Time & Date
Minimum magnitude displayed is 2.5.

Coastal Water Temperatures

Place Temperature

Stations

Nearby Weather Stations

Station Location Temp. Windchill Dew Point Humidity Wind Precip. Elev Updated Type
                   

Watches & Warnings

There are currently no watches in effect.